createdAt,value
2024-01-30T00:00:07.675Z,1024.36
2024-01-30T00:01:52.732Z,1024.34
2024-01-30T00:03:37.656Z,1024.37
2024-01-30T00:05:22.646Z,1024.48
2024-01-30T00:07:07.731Z,1024.42
2024-01-30T00:08:52.648Z,1024.35
2024-01-30T00:10:37.661Z,1024.35
2024-01-30T00:12:22.686Z,1024.33
2024-01-30T00:14:07.724Z,1024.35
2024-01-30T00:15:52.665Z,1024.3
2024-01-30T00:17:37.665Z,1024.28
2024-01-30T00:19:22.742Z,1024.27
2024-01-30T00:21:07.646Z,1024.31
2024-01-30T00:22:52.679Z,1024.24
2024-01-30T00:24:37.690Z,1024.33
2024-01-30T00:26:22.676Z,1024.24
2024-01-30T00:28:07.779Z,1024.31
2024-01-30T00:29:52.696Z,1024.38
2024-01-30T00:31:39.764Z,1024.31
2024-01-30T00:33:22.740Z,1024.23
2024-01-30T00:35:07.727Z,1024.24
2024-01-30T00:36:52.672Z,1024.18
2024-01-30T00:38:37.711Z,1024.11
2024-01-30T00:40:22.791Z,1024.2
2024-01-30T00:42:07.682Z,1024.11
2024-01-30T00:43:52.682Z,1024.15
2024-01-30T00:45:37.750Z,1024.14
2024-01-30T00:47:22.723Z,1024.21
2024-01-30T00:49:07.927Z,1024.24
2024-01-30T00:50:52.701Z,1024.25
2024-01-30T00:52:37.657Z,1024.22
2024-01-30T00:54:22.747Z,1024.29
2024-01-30T00:56:07.732Z,1024.24
2024-01-30T00:57:52.749Z,1024.24
2024-01-30T00:59:37.707Z,1024.26
2024-01-30T01:01:22.808Z,1024.27
2024-01-30T01:03:07.803Z,1024.22
2024-01-30T01:04:52.692Z,1024.21
2024-01-30T01:06:37.834Z,1024.18
2024-01-30T01:08:22.711Z,1024.35
2024-01-30T01:10:07.896Z,1024.32
2024-01-30T01:11:52.707Z,1024.22
2024-01-30T01:13:37.731Z,1024.28
2024-01-30T01:15:22.746Z,1024.15
2024-01-30T01:17:07.731Z,1024.15
2024-01-30T01:18:52.904Z,1024.19
2024-01-30T01:20:37.746Z,1024.31
2024-01-30T01:22:22.796Z,1024.18
2024-01-30T01:24:07.745Z,1024.21
2024-01-30T01:25:52.779Z,1024.25
2024-01-30T01:27:37.736Z,1024.2
2024-01-30T01:29:22.751Z,1024.17
2024-01-30T01:31:07.832Z,1024.27
2024-01-30T01:32:52.751Z,1024.23
2024-01-30T01:34:37.869Z,1024.18
2024-01-30T01:36:22.843Z,1024.11
2024-01-30T01:38:07.734Z,1024.13
2024-01-30T01:39:52.770Z,1024.11
2024-01-30T01:41:37.800Z,1024.18
2024-01-30T01:43:22.803Z,1024.11
2024-01-30T01:45:07.758Z,1024.05
2024-01-30T01:46:52.756Z,1024.03
2024-01-30T01:48:37.874Z,1024.05
2024-01-30T01:50:23.066Z,1024.12
2024-01-30T01:52:07.756Z,1024.12
2024-01-30T01:53:52.792Z,1024.07
2024-01-30T01:55:37.731Z,1024.05
2024-01-30T01:57:22.801Z,1024.08
2024-01-30T01:59:07.779Z,1024.14
2024-01-30T02:00:52.848Z,1024.09
2024-01-30T02:02:37.774Z,1024.15
2024-01-30T02:04:22.879Z,1023.98
2024-01-30T02:06:07.826Z,1023.99
2024-01-30T02:07:52.993Z,1023.93
2024-01-30T02:09:37.833Z,1023.9
2024-01-30T02:11:22.744Z,1023.85
2024-01-30T02:13:07.826Z,1023.97
2024-01-30T02:14:52.803Z,1023.94
2024-01-30T02:16:37.789Z,1023.91
2024-01-30T02:18:22.791Z,1023.86
2024-01-30T02:20:07.894Z,1023.91
2024-01-30T02:21:52.915Z,1023.82
2024-01-30T02:23:38.074Z,1023.84
2024-01-30T02:25:22.845Z,1023.82
2024-01-30T02:27:07.808Z,1023.78
2024-01-30T02:28:52.840Z,1023.85
2024-01-30T02:30:37.816Z,1023.71
2024-01-30T02:32:22.818Z,1023.81
2024-01-30T02:34:07.899Z,1023.69
2024-01-30T02:35:52.789Z,1023.69
2024-01-30T02:37:37.818Z,1023.67
2024-01-30T02:39:22.810Z,1023.66
2024-01-30T02:41:07.818Z,1023.64
2024-01-30T02:42:52.815Z,1023.63
2024-01-30T02:44:37.954Z,1023.68
2024-01-30T02:46:22.859Z,1023.68
2024-01-30T02:48:07.859Z,1023.59
2024-01-30T02:49:54.906Z,1023.59
2024-01-30T02:51:37.831Z,1023.64
2024-01-30T02:53:22.834Z,1023.6
2024-01-30T02:55:07.873Z,1023.54
2024-01-30T02:56:52.825Z,1023.63
2024-01-30T02:58:37.823Z,1023.52
2024-01-30T03:00:22.868Z,1023.55
2024-01-30T03:02:07.867Z,1023.49
2024-01-30T03:03:52.916Z,1023.56
2024-01-30T03:05:37.840Z,1023.63
2024-01-30T03:07:22.950Z,1023.59
2024-01-30T03:09:07.834Z,1023.61
2024-01-30T03:10:52.843Z,1023.51
2024-01-30T03:12:37.865Z,1023.44
2024-01-30T03:14:22.873Z,1023.42
2024-01-30T03:16:07.892Z,1023.57
2024-01-30T03:17:52.857Z,1023.57
2024-01-30T03:19:37.933Z,1023.5
2024-01-30T03:21:22.843Z,1023.51
2024-01-30T03:23:07.879Z,1023.55
2024-01-30T03:24:52.865Z,1023.51
2024-01-30T03:26:37.856Z,1023.46
2024-01-30T03:28:22.958Z,1023.48
2024-01-30T03:30:07.905Z,1023.54
2024-01-30T03:31:52.911Z,1023.5
2024-01-30T03:33:37.937Z,1023.44
2024-01-30T03:35:22.929Z,1023.49
2024-01-30T03:37:07.889Z,1023.58
2024-01-30T03:38:52.897Z,1023.47
2024-01-30T03:40:37.884Z,1023.44
2024-01-30T03:42:22.894Z,1023.35
2024-01-30T03:44:07.858Z,1023.5
2024-01-30T03:45:52.918Z,1023.36
2024-01-30T03:47:38.208Z,1023.41
2024-01-30T03:49:22.970Z,1023.44
2024-01-30T03:51:07.884Z,1023.4
2024-01-30T03:52:52.911Z,1023.36
2024-01-30T03:54:37.901Z,1023.35
2024-01-30T03:56:22.893Z,1023.46
2024-01-30T03:58:07.927Z,1023.35
2024-01-30T03:59:52.892Z,1023.32
2024-01-30T04:01:37.973Z,1023.28
2024-01-30T04:03:22.996Z,1023.25
2024-01-30T04:05:07.974Z,1023.27
2024-01-30T04:06:52.949Z,1023.14
2024-01-30T04:08:37.929Z,1023.12
2024-01-30T04:10:22.958Z,1023.17
2024-01-30T04:12:07.908Z,1023.11
2024-01-30T04:13:52.931Z,1023.18
2024-01-30T04:15:37.909Z,1023.14
2024-01-30T04:17:22.924Z,1023.11
2024-01-30T04:19:08.007Z,1023.12
2024-01-30T04:20:52.917Z,1023.09
2024-01-30T04:22:37.934Z,1023.12
2024-01-30T04:24:22.972Z,1023.15
2024-01-30T04:26:07.954Z,1023.17
2024-01-30T04:27:52.949Z,1023.19
2024-01-30T04:29:37.923Z,1023.21
2024-01-30T04:31:22.963Z,1023.16
2024-01-30T04:33:07.990Z,1023.12
2024-01-30T04:34:52.999Z,1023.12
2024-01-30T04:36:37.958Z,1023.09
2024-01-30T04:38:22.911Z,1023.15
2024-01-30T04:40:08.043Z,1023.15
2024-01-30T04:41:52.931Z,1023.07
2024-01-30T04:43:37.929Z,1023.08
2024-01-30T04:45:22.970Z,1023.29
2024-01-30T04:47:07.981Z,1023.21
2024-01-30T04:48:52.979Z,1023.18
2024-01-30T04:50:37.994Z,1023.15
2024-01-30T04:52:23.032Z,1023.2
2024-01-30T04:54:07.936Z,1023.16
2024-01-30T04:55:52.938Z,1023.18
2024-01-30T04:57:38.008Z,1023.2
2024-01-30T04:59:22.947Z,1023.28
2024-01-30T05:01:08.025Z,1023.24
2024-01-30T05:02:52.941Z,1023.17
2024-01-30T05:04:38.132Z,1023.14
2024-01-30T05:06:23.056Z,1023.19
2024-01-30T05:08:07.976Z,1023.16
2024-01-30T05:09:53.678Z,1023.07
2024-01-30T05:11:37.964Z,1023.12
2024-01-30T05:13:23.042Z,1023.15
2024-01-30T05:15:07.946Z,1023.09
2024-01-30T05:16:53.005Z,1023.03
2024-01-30T05:18:38.054Z,1022.99
2024-01-30T05:20:22.997Z,1022.98
2024-01-30T05:22:08.048Z,1023.09
2024-01-30T05:23:52.978Z,1023.07
2024-01-30T05:25:38.023Z,1023.07
2024-01-30T05:27:23.023Z,1023.02
2024-01-30T05:29:07.983Z,1023.1
2024-01-30T05:30:53.045Z,1023.08
2024-01-30T05:32:38.079Z,1022.95
2024-01-30T05:34:23.014Z,1023.02
2024-01-30T05:36:08.009Z,1022.98
2024-01-30T05:37:53.049Z,1022.97
2024-01-30T05:39:38.017Z,1022.98
2024-01-30T05:41:23.032Z,1023.01
2024-01-30T05:43:08.028Z,1022.9
2024-01-30T05:44:53.025Z,1022.97
2024-01-30T05:46:38.088Z,1022.96
2024-01-30T05:48:23.001Z,1022.93
2024-01-30T05:50:08.082Z,1022.91
2024-01-30T05:51:53.032Z,1022.98
2024-01-30T05:53:38.087Z,1022.82
2024-01-30T05:55:23.173Z,1022.79
2024-01-30T05:57:08.052Z,1022.96
2024-01-30T05:58:53.039Z,1022.91
2024-01-30T06:00:38.057Z,1022.82
2024-01-30T06:02:23.053Z,1022.89
2024-01-30T06:04:08.056Z,1022.92
2024-01-30T06:05:53.070Z,1022.97
2024-01-30T06:07:38.197Z,1023.02
2024-01-30T06:09:23.086Z,1023
2024-01-30T06:11:08.046Z,1022.98
2024-01-30T06:12:53.091Z,1023.06
2024-01-30T06:14:38.086Z,1022.96
2024-01-30T06:16:23.103Z,1022.98
2024-01-30T06:18:08.117Z,1023.07
2024-01-30T06:19:53.409Z,1023.03
2024-01-30T06:21:38.097Z,1022.98
2024-01-30T06:23:23.053Z,1022.98
2024-01-30T06:25:08.093Z,1023.04
2024-01-30T06:26:53.045Z,1022.82
2024-01-30T06:28:38.106Z,1022.93
2024-01-30T06:30:23.698Z,1022.86
2024-01-30T06:32:08.058Z,1022.84
2024-01-30T06:33:53.180Z,1022.88
2024-01-30T06:35:38.625Z,1022.75
2024-01-30T06:37:23.262Z,1022.87
2024-01-30T06:39:08.086Z,1022.88
2024-01-30T06:40:53.451Z,1022.85
2024-01-30T06:42:38.100Z,1022.78
2024-01-30T06:44:23.115Z,1022.92
2024-01-30T06:46:08.180Z,1022.93
2024-01-30T06:47:53.109Z,1022.94
2024-01-30T06:49:38.203Z,1022.97
2024-01-30T06:51:23.135Z,1023.05
2024-01-30T06:53:08.100Z,1022.98
2024-01-30T06:54:53.144Z,1022.98
2024-01-30T06:56:38.156Z,1022.98
2024-01-30T06:58:23.121Z,1023.09
2024-01-30T07:00:08.101Z,1023.04
2024-01-30T07:01:53.229Z,1023.06
2024-01-30T07:03:38.163Z,1023.11
2024-01-30T07:05:23.173Z,1023.11
2024-01-30T07:07:08.157Z,1023.1
2024-01-30T07:08:53.154Z,1023.16
2024-01-30T07:10:38.203Z,1023.05
2024-01-30T07:12:23.171Z,1023.15
2024-01-30T07:14:08.134Z,1023.05
2024-01-30T07:15:53.204Z,1023.18
2024-01-30T07:17:38.172Z,1023.07
2024-01-30T07:19:23.327Z,1023.13
2024-01-30T07:21:08.138Z,1023.27
2024-01-30T07:22:53.150Z,1023.22
2024-01-30T07:24:38.177Z,1023.18
2024-01-30T07:26:23.524Z,1023.3
2024-01-30T07:28:08.294Z,1023.25
2024-01-30T07:29:53.176Z,1023.21
2024-01-30T07:31:38.267Z,1023.2
2024-01-30T07:33:23.205Z,1023.32
2024-01-30T07:35:09.033Z,1023.36
2024-01-30T07:36:55.647Z,1023.4
2024-01-30T07:38:38.174Z,1023.37
2024-01-30T07:40:23.179Z,1023.35
2024-01-30T07:42:08.348Z,1023.3
2024-01-30T07:43:53.259Z,1023.37
2024-01-30T07:45:38.149Z,1023.39
2024-01-30T07:47:23.185Z,1023.41
2024-01-30T07:49:08.242Z,1023.41
2024-01-30T07:50:53.177Z,1023.45
2024-01-30T07:52:38.185Z,1023.46
2024-01-30T07:54:23.238Z,1023.56
2024-01-30T07:56:08.242Z,1023.46
2024-01-30T07:57:53.372Z,1023.38
2024-01-30T07:59:38.299Z,1023.47
2024-01-30T08:01:23.225Z,1023.41
2024-01-30T08:03:08.203Z,1023.41
2024-01-30T08:04:53.380Z,1023.43
2024-01-30T08:06:39.129Z,1023.53
2024-01-30T08:08:23.211Z,1023.51
2024-01-30T08:10:08.315Z,1023.55
2024-01-30T08:11:53.225Z,1023.59
2024-01-30T08:13:38.277Z,1023.6
2024-01-30T08:15:23.246Z,1023.64
2024-01-30T08:17:08.202Z,1023.65
2024-01-30T08:18:53.350Z,1023.63
2024-01-30T08:20:38.521Z,1023.67
2024-01-30T08:22:23.242Z,1023.66
2024-01-30T08:24:08.261Z,1023.7
2024-01-30T08:25:53.221Z,1023.62
2024-01-30T08:27:38.309Z,1023.69
2024-01-30T08:29:23.343Z,1023.66
2024-01-30T08:31:08.301Z,1023.66
2024-01-30T08:32:53.293Z,1023.57
2024-01-30T08:34:38.313Z,1023.69
2024-01-30T08:36:23.294Z,1023.65
2024-01-30T08:38:08.268Z,1023.66
2024-01-30T08:39:53.268Z,1023.73
2024-01-30T08:41:38.240Z,1023.58
2024-01-30T08:43:23.285Z,1023.7
2024-01-30T08:45:08.250Z,1023.72
2024-01-30T08:46:53.238Z,1023.72
2024-01-30T08:48:38.322Z,1023.77
2024-01-30T08:50:23.244Z,1023.74
2024-01-30T08:52:08.293Z,1023.78
2024-01-30T08:53:53.251Z,1023.83
2024-01-30T08:55:38.286Z,1023.84
2024-01-30T08:57:23.246Z,1023.88
2024-01-30T08:59:09.958Z,1023.85
2024-01-30T09:00:53.361Z,1023.84
2024-01-30T09:02:38.438Z,1023.85
2024-01-30T09:04:26.032Z,1023.91
2024-01-30T09:06:08.305Z,1024.02
2024-01-30T09:07:53.324Z,1023.98
2024-01-30T09:09:38.296Z,1024.09
2024-01-30T09:11:23.312Z,1024.04
2024-01-30T09:13:08.328Z,1024.06
2024-01-30T09:14:53.320Z,1024.14
2024-01-30T09:16:38.428Z,1024.14
2024-01-30T09:18:23.405Z,1024.16
2024-01-30T09:20:08.537Z,1024.1
2024-01-30T09:21:53.326Z,1024.13
2024-01-30T09:23:38.289Z,1024.05
2024-01-30T09:25:23.820Z,1024.1
2024-01-30T09:27:08.311Z,1024.05
2024-01-30T09:28:53.377Z,1024.08
2024-01-30T09:30:38.309Z,1023.97
2024-01-30T09:32:23.337Z,1024.04
2024-01-30T09:34:08.352Z,1023.9
2024-01-30T09:35:53.312Z,1024.04
2024-01-30T09:37:38.352Z,1024.02
2024-01-30T09:39:23.340Z,1023.96
2024-01-30T09:41:08.308Z,1023.85
2024-01-30T09:42:53.342Z,1023.97
2024-01-30T09:44:38.339Z,1024.04
2024-01-30T09:46:23.377Z,1024.08
2024-01-30T09:48:08.347Z,1023.95
2024-01-30T09:49:53.399Z,1024.1
2024-01-30T09:51:38.313Z,1024.01
2024-01-30T09:53:23.352Z,1024.06
2024-01-30T09:55:08.384Z,1024.09
2024-01-30T09:56:53.320Z,1024.07
2024-01-30T09:58:38.381Z,1024.1
2024-01-30T10:00:23.355Z,1023.98
2024-01-30T10:02:08.730Z,1024.08
2024-01-30T10:03:53.436Z,1024.04
2024-01-30T10:05:38.402Z,1023.95
2024-01-30T10:07:23.417Z,1024.04
2024-01-30T10:09:08.361Z,1024.05
2024-01-30T10:10:53.351Z,1024.03
2024-01-30T10:12:38.348Z,1024.03
2024-01-30T10:14:23.391Z,1024.05
2024-01-30T10:16:08.383Z,1024.01
2024-01-30T10:17:53.358Z,1024.12
2024-01-30T10:19:38.397Z,1024.09
2024-01-30T10:21:23.385Z,1024.1
2024-01-30T10:23:08.384Z,1024.08
2024-01-30T10:24:53.376Z,1024.16
2024-01-30T10:26:38.366Z,1024.17
2024-01-30T10:28:23.522Z,1024.18
2024-01-30T10:30:08.413Z,1024.17
2024-01-30T10:31:53.477Z,1024.23
2024-01-30T10:33:38.508Z,1024.18
2024-01-30T10:35:23.806Z,1024.04
2024-01-30T10:37:08.448Z,1024.19
2024-01-30T10:38:53.384Z,1024.28
2024-01-30T10:40:38.598Z,1024.29
2024-01-30T10:42:23.420Z,1024.31
2024-01-30T10:44:08.469Z,1024.31
2024-01-30T10:45:53.451Z,1024.31
2024-01-30T10:47:38.754Z,1024.3
2024-01-30T10:49:23.446Z,1024.27
2024-01-30T10:51:08.442Z,1024.25
2024-01-30T10:52:53.442Z,1024.25
2024-01-30T10:54:38.403Z,1024.31
2024-01-30T10:56:23.445Z,1024.21
2024-01-30T10:58:08.422Z,1024.2
2024-01-30T10:59:53.423Z,1024.17
2024-01-30T11:01:38.528Z,1024.3
2024-01-30T11:03:23.392Z,1024.31
2024-01-30T11:05:08.448Z,1024.23
2024-01-30T11:06:53.562Z,1024.34
2024-01-30T11:08:38.455Z,1024.16
2024-01-30T11:10:23.774Z,1024.2
2024-01-30T11:12:08.434Z,1024.19
2024-01-30T11:13:53.427Z,1024.19
2024-01-30T11:15:39.091Z,1024.28
2024-01-30T11:17:23.459Z,1024.27
2024-01-30T11:19:08.580Z,1024.26
2024-01-30T11:20:53.425Z,1024.33
2024-01-30T11:22:38.442Z,1024.4
2024-01-30T11:24:23.471Z,1024.47
2024-01-30T11:26:08.430Z,1024.31
2024-01-30T11:27:53.762Z,1024.32
2024-01-30T11:29:38.854Z,1024.36
2024-01-30T11:31:23.496Z,1024.3
2024-01-30T11:33:08.653Z,1024.27
2024-01-30T11:34:53.540Z,1024.38
2024-01-30T11:36:38.462Z,1024.24
2024-01-30T11:38:23.437Z,1024.26
2024-01-30T11:40:08.529Z,1024.34
2024-01-30T11:41:53.452Z,1024.21
2024-01-30T11:43:38.517Z,1024.17
2024-01-30T11:45:23.609Z,1024.22
2024-01-30T11:47:08.455Z,1024.2
2024-01-30T11:48:53.537Z,1024.25
2024-01-30T11:50:38.445Z,1024.22
2024-01-30T11:52:23.511Z,1024.2
2024-01-30T11:54:08.456Z,1024.2
2024-01-30T11:55:53.503Z,1024.16
2024-01-30T11:57:38.567Z,1024.22
2024-01-30T11:59:23.469Z,1024.15
2024-01-30T12:01:08.576Z,1024.14
2024-01-30T12:02:53.511Z,1024.07
2024-01-30T12:04:38.512Z,1024.04
2024-01-30T12:06:23.546Z,1024.06
2024-01-30T12:08:08.590Z,1024.1
2024-01-30T12:09:53.568Z,1024.05
2024-01-30T12:11:38.553Z,1024.08
2024-01-30T12:13:23.515Z,1024.04
2024-01-30T12:15:08.477Z,1024.09
2024-01-30T12:16:53.539Z,1024.08
2024-01-30T12:18:38.539Z,1024.12
2024-01-30T12:20:23.774Z,1024.1
2024-01-30T12:22:08.525Z,1024.1
2024-01-30T12:23:53.486Z,1024.08
2024-01-30T12:25:38.600Z,1024.04
2024-01-30T12:27:23.532Z,1024.1
2024-01-30T12:29:08.515Z,1024.09
2024-01-30T12:30:53.532Z,1024.15
2024-01-30T12:32:38.543Z,1024.17
2024-01-30T12:34:23.605Z,1024.23
2024-01-30T12:36:08.608Z,1024.09
2024-01-30T12:37:53.565Z,1024.16
2024-01-30T12:39:38.546Z,1024.09
2024-01-30T12:41:23.528Z,1024.11
2024-01-30T12:43:08.574Z,1024.12
2024-01-30T12:44:53.530Z,1024.11
2024-01-30T12:46:38.575Z,1024.22
2024-01-30T12:48:23.588Z,1024.17
2024-01-30T12:50:08.536Z,1024.11
2024-01-30T12:51:53.574Z,1024.18
2024-01-30T12:53:38.549Z,1024.07
2024-01-30T12:55:23.595Z,1024.15
2024-01-30T12:57:08.546Z,1024.13
2024-01-30T12:58:54.993Z,1024.1
2024-01-30T13:00:38.584Z,1024.23
2024-01-30T13:02:23.559Z,1024.2
2024-01-30T13:04:08.573Z,1024.19
2024-01-30T13:05:53.573Z,1024.26
2024-01-30T13:07:38.550Z,1024.28
2024-01-30T13:09:23.586Z,1024.38
2024-01-30T13:11:13.214Z,1024.3
2024-01-30T13:12:53.588Z,1024.32
2024-01-30T13:14:38.618Z,1024.36
2024-01-30T13:16:23.598Z,1024.28
2024-01-30T13:18:08.569Z,1024.31
2024-01-30T13:19:53.637Z,1024.27
2024-01-30T13:21:38.566Z,1024.45
2024-01-30T13:23:23.647Z,1024.35
2024-01-30T13:25:08.984Z,1024.32
2024-01-30T13:26:53.567Z,1024.21
2024-01-30T13:28:38.643Z,1024.27
2024-01-30T13:30:23.671Z,1024.28
2024-01-30T13:32:08.622Z,1024.3
2024-01-30T13:33:53.658Z,1024.24
2024-01-30T13:35:38.625Z,1024.29
2024-01-30T13:37:23.777Z,1024.37
2024-01-30T13:39:08.605Z,1024.33
2024-01-30T13:40:53.627Z,1024.35
2024-01-30T13:42:38.618Z,1024.34
2024-01-30T13:44:23.601Z,1024.38
2024-01-30T13:46:08.672Z,1024.34
2024-01-30T13:47:53.613Z,1024.45
2024-01-30T13:49:38.673Z,1024.35
2024-01-30T13:51:23.611Z,1024.32
2024-01-30T13:53:08.696Z,1024.25
2024-01-30T13:54:53.663Z,1024.5
2024-01-30T13:56:38.650Z,1024.4
2024-01-30T13:58:23.934Z,1024.32
2024-01-30T14:00:08.640Z,1024.33
2024-01-30T14:01:53.754Z,1024.32
2024-01-30T14:03:38.621Z,1024.39
2024-01-30T14:05:23.893Z,1024.34
2024-01-30T14:07:08.731Z,1024.36
2024-01-30T14:08:57.416Z,1024.34
2024-01-30T14:10:38.679Z,1024.29
2024-01-30T14:12:23.664Z,1024.36
2024-01-30T14:14:08.698Z,1024.34
2024-01-30T14:15:53.767Z,1024.38
2024-01-30T14:17:38.700Z,1024.41
2024-01-30T14:19:23.729Z,1024.42
2024-01-30T14:21:08.715Z,1024.52
2024-01-30T14:22:53.659Z,1024.4
2024-01-30T14:24:38.692Z,1024.56
2024-01-30T14:26:23.722Z,1024.5
2024-01-30T14:28:08.741Z,1024.46
2024-01-30T14:29:53.692Z,1024.54
2024-01-30T14:31:38.729Z,1024.55
2024-01-30T14:33:23.704Z,1024.61
2024-01-30T14:35:08.713Z,1024.66
2024-01-30T14:36:53.772Z,1024.69
2024-01-30T14:38:38.689Z,1024.83
2024-01-30T14:40:23.770Z,1024.82
2024-01-30T14:42:08.688Z,1024.79
2024-01-30T14:43:53.708Z,1024.82
2024-01-30T14:45:38.702Z,1024.94
2024-01-30T14:47:23.707Z,1024.94
2024-01-30T14:49:08.857Z,1025.01
2024-01-30T14:50:53.684Z,1025.01
2024-01-30T14:52:39.090Z,1025.04
2024-01-30T14:54:23.742Z,1025.03
2024-01-30T14:56:08.699Z,1025.04
2024-01-30T14:57:53.715Z,1025.13
2024-01-30T14:59:38.711Z,1025.05
2024-01-30T15:01:23.850Z,1025.04
2024-01-30T15:03:09.352Z,1025.1
2024-01-30T15:04:53.892Z,1025.2
2024-01-30T15:06:38.774Z,1025.15
2024-01-30T15:08:23.852Z,1025.23
2024-01-30T15:10:08.892Z,1025.2
2024-01-30T15:11:53.747Z,1025.19
2024-01-30T15:13:38.752Z,1025.24
2024-01-30T15:15:25.118Z,1025.16
2024-01-30T15:17:08.848Z,1025.26
2024-01-30T15:18:53.840Z,1025.29
2024-01-30T15:20:39.096Z,1025.34
2024-01-30T15:22:23.764Z,1025.42
2024-01-30T15:24:08.729Z,1025.36
2024-01-30T15:25:53.743Z,1025.41
2024-01-30T15:27:38.791Z,1025.44
2024-01-30T15:29:24.088Z,1025.46
2024-01-30T15:31:08.835Z,1025.41
2024-01-30T15:32:53.828Z,1025.48
2024-01-30T15:34:38.840Z,1025.51
2024-01-30T15:36:23.799Z,1025.53
2024-01-30T15:38:08.788Z,1025.55
2024-01-30T15:39:53.759Z,1025.58
2024-01-30T15:41:38.770Z,1025.55
2024-01-30T15:43:23.862Z,1025.61
2024-01-30T15:45:08.778Z,1025.73
2024-01-30T15:46:53.779Z,1025.69
2024-01-30T15:48:39.126Z,1025.85
2024-01-30T15:50:23.901Z,1025.91
2024-01-30T15:52:08.901Z,1025.86
2024-01-30T15:53:53.785Z,1025.97
2024-01-30T15:55:38.888Z,1025.97
2024-01-30T15:57:24.689Z,1025.99
2024-01-30T15:59:08.778Z,1025.91
2024-01-30T16:00:53.870Z,1026.03
2024-01-30T16:02:38.907Z,1025.94
2024-01-30T16:04:23.867Z,1026.01
2024-01-30T16:06:08.820Z,1025.99
2024-01-30T16:07:53.861Z,1026.03
2024-01-30T16:09:38.808Z,1025.96
2024-01-30T16:11:23.836Z,1025.93
2024-01-30T16:13:08.870Z,1026.02
2024-01-30T16:14:53.822Z,1026.11
2024-01-30T16:16:38.813Z,1026.15
2024-01-30T16:18:23.836Z,1026.17
2024-01-30T16:20:08.904Z,1026.25
2024-01-30T16:21:53.873Z,1026.22
2024-01-30T16:23:38.830Z,1026.26
2024-01-30T16:25:23.859Z,1026.35
2024-01-30T16:27:08.833Z,1026.22
2024-01-30T16:28:53.849Z,1026.26
2024-01-30T16:30:38.825Z,1026.39
2024-01-30T16:32:23.961Z,1026.32
2024-01-30T16:34:08.941Z,1026.35
2024-01-30T16:35:54.210Z,1026.5
2024-01-30T16:37:38.902Z,1026.5
2024-01-30T16:39:23.907Z,1026.35
2024-01-30T16:41:08.834Z,1026.48
2024-01-30T16:42:53.847Z,1026.51
2024-01-30T16:44:38.836Z,1026.59
2024-01-30T16:46:23.851Z,1026.62
2024-01-30T16:48:08.912Z,1026.59
2024-01-30T16:49:53.867Z,1026.71
2024-01-30T16:51:38.847Z,1026.76
2024-01-30T16:53:23.897Z,1026.72
2024-01-30T16:55:08.943Z,1026.82
2024-01-30T16:56:53.881Z,1026.73
2024-01-30T16:58:38.910Z,1026.88
2024-01-30T17:00:23.904Z,1026.91
2024-01-30T17:02:08.921Z,1026.91
2024-01-30T17:03:53.886Z,1027.01
2024-01-30T17:05:38.948Z,1027.04
2024-01-30T17:07:23.921Z,1027.08
2024-01-30T17:09:08.900Z,1027.1
2024-01-30T17:10:53.928Z,1027.1
2024-01-30T17:12:38.908Z,1027.19
2024-01-30T17:14:23.939Z,1027.24
2024-01-30T17:16:08.912Z,1027.36
2024-01-30T17:17:53.953Z,1027.37
2024-01-30T17:19:39.021Z,1027.46
2024-01-30T17:21:23.973Z,1027.37
2024-01-30T17:23:09.020Z,1027.45
2024-01-30T17:24:53.910Z,1027.5
2024-01-30T17:26:42.838Z,1027.45
2024-01-30T17:28:23.981Z,1027.59
2024-01-30T17:30:08.888Z,1027.55
2024-01-30T17:31:53.943Z,1027.64
2024-01-30T17:33:39.020Z,1027.56
2024-01-30T17:35:24.020Z,1027.62
2024-01-30T17:37:08.945Z,1027.54
2024-01-30T17:38:53.953Z,1027.61
2024-01-30T17:40:38.974Z,1027.52
2024-01-30T17:42:23.986Z,1027.6
2024-01-30T17:44:08.954Z,1027.62
2024-01-30T17:45:53.944Z,1027.76
2024-01-30T17:47:38.913Z,1027.77
2024-01-30T17:49:24.143Z,1027.75
2024-01-30T17:51:08.951Z,1027.72
2024-01-30T17:52:53.982Z,1027.76
2024-01-30T17:54:38.932Z,1027.85
2024-01-30T17:56:24.015Z,1027.69
2024-01-30T17:58:09.018Z,1027.68
2024-01-30T17:59:54.009Z,1027.87
2024-01-30T18:01:39.067Z,1027.79
2024-01-30T18:03:23.994Z,1027.78
2024-01-30T18:05:09.002Z,1027.83
2024-01-30T18:06:54.119Z,1027.85
2024-01-30T18:08:38.946Z,1027.86
2024-01-30T18:10:24.044Z,1027.84
2024-01-30T18:12:08.952Z,1027.87
2024-01-30T18:13:53.998Z,1028
2024-01-30T18:15:38.967Z,1027.89
2024-01-30T18:17:24.032Z,1027.88
2024-01-30T18:19:09.094Z,1027.82
2024-01-30T18:20:54.629Z,1027.86
2024-01-30T18:22:39.009Z,1027.89
2024-01-30T18:24:23.992Z,1027.9
2024-01-30T18:26:08.996Z,1027.96
2024-01-30T18:27:54.024Z,1027.92
2024-01-30T18:29:39.034Z,1027.99
2024-01-30T18:31:24.079Z,1027.98
2024-01-30T18:33:09.009Z,1028.03
2024-01-30T18:34:54.052Z,1028.04
2024-01-30T18:36:39.033Z,1028.1
2024-01-30T18:38:24.052Z,1028.24
2024-01-30T18:40:08.991Z,1028.2
2024-01-30T18:41:53.991Z,1028.21
2024-01-30T18:43:39.011Z,1028.16
2024-01-30T18:45:24.032Z,1028.27
2024-01-30T18:47:09.026Z,1028.33
2024-01-30T18:48:54.079Z,1028.38
2024-01-30T18:50:39.019Z,1028.38
2024-01-30T18:52:24.133Z,1028.42
2024-01-30T18:54:09.021Z,1028.48
2024-01-30T18:55:54.006Z,1028.44
2024-01-30T18:57:39.075Z,1028.39
2024-01-30T18:59:24.079Z,1028.38
2024-01-30T19:01:09.116Z,1028.47
2024-01-30T19:02:54.034Z,1028.47
2024-01-30T19:04:39.127Z,1028.42
2024-01-30T19:06:24.215Z,1028.53
2024-01-30T19:08:09.046Z,1028.52
2024-01-30T19:09:54.108Z,1028.54
2024-01-30T19:11:39.005Z,1028.53
2024-01-30T19:13:24.117Z,1028.43
2024-01-30T19:15:09.051Z,1028.52
2024-01-30T19:16:54.087Z,1028.48
2024-01-30T19:18:39.073Z,1028.6
2024-01-30T19:20:24.196Z,1028.49
2024-01-30T19:22:09.065Z,1028.51
2024-01-30T19:23:54.043Z,1028.46
2024-01-30T19:25:40.298Z,1028.59
2024-01-30T19:27:24.154Z,1028.54
2024-01-30T19:29:09.056Z,1028.61
2024-01-30T19:30:54.103Z,1028.54
2024-01-30T19:32:39.137Z,1028.52
2024-01-30T19:34:24.291Z,1028.64
2024-01-30T19:36:09.062Z,1028.61
2024-01-30T19:37:54.101Z,1028.66
2024-01-30T19:39:39.067Z,1028.76
2024-01-30T19:41:24.201Z,1028.78
2024-01-30T19:43:09.111Z,1028.72
2024-01-30T19:44:54.145Z,1028.84
2024-01-30T19:46:39.111Z,1028.82
2024-01-30T19:48:24.232Z,1028.79
2024-01-30T19:50:09.137Z,1028.84
2024-01-30T19:51:54.143Z,1028.81
2024-01-30T19:53:39.124Z,1028.91
2024-01-30T19:55:26.929Z,1028.88
2024-01-30T19:57:09.090Z,1028.91
2024-01-30T19:58:54.151Z,1029.07
2024-01-30T20:00:39.160Z,1029.04
2024-01-30T20:02:24.169Z,1029.16
2024-01-30T20:04:09.374Z,1029.07
2024-01-30T20:05:54.188Z,1029.04
2024-01-30T20:07:39.142Z,1029.09
2024-01-30T20:09:24.172Z,1029.12
2024-01-30T20:11:09.156Z,1029.15
2024-01-30T20:12:54.169Z,1029.1
2024-01-30T20:14:39.143Z,1029.17
2024-01-30T20:16:24.263Z,1029.21
2024-01-30T20:18:09.151Z,1029.21
2024-01-30T20:19:54.348Z,1029.27
2024-01-30T20:21:39.136Z,1029.27
2024-01-30T20:23:24.161Z,1029.21
2024-01-30T20:25:13.436Z,1029.18
2024-01-30T20:26:54.134Z,1029.19
2024-01-30T20:28:39.255Z,1029.33
2024-01-30T20:30:24.259Z,1029.41
2024-01-30T20:32:09.157Z,1029.36
2024-01-30T20:33:54.173Z,1029.43
2024-01-30T20:35:39.215Z,1029.43
2024-01-30T20:37:24.234Z,1029.29
2024-01-30T20:39:09.142Z,1029.31
2024-01-30T20:40:54.169Z,1029.35
2024-01-30T20:42:39.208Z,1029.36
2024-01-30T20:44:24.276Z,1029.31
2024-01-30T20:46:09.179Z,1029.41
2024-01-30T20:47:54.233Z,1029.47
2024-01-30T20:49:39.179Z,1029.52
2024-01-30T20:51:24.234Z,1029.47
2024-01-30T20:53:09.178Z,1029.51
2024-01-30T20:54:54.219Z,1029.55
2024-01-30T20:56:39.174Z,1029.55
2024-01-30T20:58:24.229Z,1029.51
2024-01-30T21:00:09.186Z,1029.51
2024-01-30T21:01:54.216Z,1029.44
2024-01-30T21:03:39.205Z,1029.48
2024-01-30T21:05:24.515Z,1029.54
2024-01-30T21:07:09.271Z,1029.57
2024-01-30T21:08:54.209Z,1029.53
2024-01-30T21:10:39.242Z,1029.5
2024-01-30T21:12:24.283Z,1029.54